Middle City West, Pennsylvania
Current Conditions -  °F | °C
As of 6:54 PM on Sunday 21 Dec 2014 (Local Time) from KPHL Reporting Station
Few Clouds Few Clouds  
Wind Chill: 34°   Ceiling: Unl
Heat Index: 34°   Visibility: 10mi
Dew Point: 22°   Wind: 3mph
Humidity: 61%   Direction: 40°NE
Pressure: 30.35"   Gusts: NA
Location:  39.9534°N, 75.1738°W
Report Text: KPHL 212354Z 04003KT 10SM FEW200 01/M06 A3035 RMK AO2 SLP276 T00111056 10044 20011 51017
Loading
Personal Weather Stations






























Interactive Weather Map New forecast layout! Learn more

10-Day Weather Forecast

Advertisements
Track Severe Weather on mobile